sensor_id;sensor_type;location;lat;lon;timestamp;P1;durP1;ratioP1;P2;durP2;ratioP2
18125;SDS011;53956;52.442;13.284;2023-03-24T00:00:04;5.80;;;3.73;;
18125;SDS011;53956;52.442;13.284;2023-03-24T00:02:36;7.13;;;4.60;;
18125;SDS011;53956;52.442;13.284;2023-03-24T00:05:06;6.33;;;4.30;;
18125;SDS011;53956;52.442;13.284;2023-03-24T00:07:33;5.97;;;3.77;;
18125;SDS011;53956;52.442;13.284;2023-03-24T00:10:02;4.70;;;3.90;;
18125;SDS011;53956;52.442;13.284;2023-03-24T00:12:31;5.33;;;3.90;;
18125;SDS011;53956;52.442;13.284;2023-03-24T00:14:58;6.27;;;3.73;;
18125;SDS011;53956;52.442;13.284;2023-03-24T00:17:26;4.73;;;4.00;;
18125;SDS011;53956;52.442;13.284;2023-03-24T00:19:53;5.07;;;3.87;;
18125;SDS011;53956;52.442;13.284;2023-03-24T00:22:25;4.77;;;3.97;;
18125;SDS011;53956;52.442;13.284;2023-03-24T00:24:52;5.47;;;3.83;;
18125;SDS011;53956;52.442;13.284;2023-03-24T00:27:19;5.07;;;4.00;;
18125;SDS011;53956;52.442;13.284;2023-03-24T00:29:47;4.10;;;3.70;;
18125;SDS011;53956;52.442;13.284;2023-03-24T00:32:14;6.30;;;3.57;;
18125;SDS011;53956;52.442;13.284;2023-03-24T00:34:41;4.93;;;3.90;;
18125;SDS011;53956;52.442;13.284;2023-03-24T00:37:08;4.90;;;3.70;;
18125;SDS011;53956;52.442;13.284;2023-03-24T00:39:34;5.83;;;4.70;;
18125;SDS011;53956;52.442;13.284;2023-03-24T00:42:01;4.27;;;3.40;;
18125;SDS011;53956;52.442;13.284;2023-03-24T00:44:28;3.77;;;3.40;;
18125;SDS011;53956;52.442;13.284;2023-03-24T00:46:56;5.93;;;3.60;;
18125;SDS011;53956;52.442;13.284;2023-03-24T00:49:25;5.53;;;3.80;;
18125;SDS011;53956;52.442;13.284;2023-03-24T00:52:07;5.33;;;3.50;;
18125;SDS011;53956;52.442;13.284;2023-03-24T00:54:35;3.57;;;3.27;;
18125;SDS011;53956;52.442;13.284;2023-03-24T00:57:02;3.80;;;3.40;;
18125;SDS011;53956;52.442;13.284;2023-03-24T00:59:30;3.70;;;3.40;;
18125;SDS011;53956;52.442;13.284;2023-03-24T01:02:03;5.40;;;3.37;;
18125;SDS011;53956;52.442;13.284;2023-03-24T01:04:30;3.80;;;3.50;;
18125;SDS011;53956;52.442;13.284;2023-03-24T01:07:00;3.87;;;3.57;;
18125;SDS011;53956;52.442;13.284;2023-03-24T01:09:27;4.10;;;3.50;;
18125;SDS011;53956;52.442;13.284;2023-03-24T01:11:54;4.33;;;3.63;;
18125;SDS011;53956;52.442;13.284;2023-03-24T01:14:21;3.90;;;3.50;;
18125;SDS011;53956;52.442;13.284;2023-03-24T01:16:48;7.93;;;3.77;;
18125;SDS011;53956;52.442;13.284;2023-03-24T01:19:16;4.97;;;3.57;;
18125;SDS011;53956;52.442;13.284;2023-03-24T01:21:43;4.67;;;3.50;;
18125;SDS011;53956;52.442;13.284;2023-03-24T01:24:09;4.90;;;3.57;;
18125;SDS011;53956;52.442;13.284;2023-03-24T01:26:37;3.97;;;3.20;;
18125;SDS011;53956;52.442;13.284;2023-03-24T01:29:04;6.47;;;3.60;;
18125;SDS011;53956;52.442;13.284;2023-03-24T01:31:32;4.10;;;3.63;;
18125;SDS011;53956;52.442;13.284;2023-03-24T01:33:59;3.87;;;3.50;;
18125;SDS011;53956;52.442;13.284;2023-03-24T01:36:27;4.13;;;3.60;;
18125;SDS011;53956;52.442;13.284;2023-03-24T01:38:53;4.77;;;3.60;;
18125;SDS011;53956;52.442;13.284;2023-03-24T01:41:22;4.13;;;3.67;;
18125;SDS011;53956;52.442;13.284;2023-03-24T01:43:49;5.47;;;3.50;;
18125;SDS011;53956;52.442;13.284;2023-03-24T01:46:16;4.00;;;3.40;;
18125;SDS011;53956;52.442;13.284;2023-03-24T01:48:46;3.97;;;3.30;;
18125;SDS011;53956;52.442;13.284;2023-03-24T01:51:17;4.63;;;3.70;;
18125;SDS011;53956;52.442;13.284;2023-03-24T01:53:50;4.77;;;3.90;;
18125;SDS011;53956;52.442;13.284;2023-03-24T01:56:20;4.93;;;3.40;;
18125;SDS011;53956;52.442;13.284;2023-03-24T01:58:49;4.73;;;3.80;;
18125;SDS011;53956;52.442;13.284;2023-03-24T02:01:28;4.80;;;3.73;;
18125;SDS011;53956;52.442;13.284;2023-03-24T02:04:29;4.23;;;3.57;;
18125;SDS011;53956;52.442;13.284;2023-03-24T02:07:03;4.67;;;3.87;;
18125;SDS011;53956;52.442;13.284;2023-03-24T02:09:36;5.23;;;4.27;;
18125;SDS011;53956;52.442;13.284;2023-03-24T02:12:03;4.47;;;3.80;;
18125;SDS011;53956;52.442;13.284;2023-03-24T02:14:31;5.07;;;3.80;;
18125;SDS011;53956;52.442;13.284;2023-03-24T02:17:03;6.70;;;3.80;;
18125;SDS011;53956;52.442;13.284;2023-03-24T02:22:59;4.73;;;4.00;;
18125;SDS011;53956;52.442;13.284;2023-03-24T02:25:59;4.73;;;4.23;;
18125;SDS011;53956;52.442;13.284;2023-03-24T02:28:55;4.20;;;3.80;;
18125;SDS011;53956;52.442;13.284;2023-03-24T02:31:50;5.27;;;3.70;;
18125;SDS011;53956;52.442;13.284;2023-03-24T02:37:52;4.67;;;3.77;;
18125;SDS011;53956;52.442;13.284;2023-03-24T02:40:44;4.03;;;3.63;;
18125;SDS011;53956;52.442;13.284;2023-03-24T02:43:19;5.57;;;3.60;;
18125;SDS011;53956;52.442;13.284;2023-03-24T02:45:59;4.70;;;3.87;;
18125;SDS011;53956;52.442;13.284;2023-03-24T02:48:40;4.07;;;3.63;;
18125;SDS011;53956;52.442;13.284;2023-03-24T02:51:13;6.07;;;3.70;;
18125;SDS011;53956;52.442;13.284;2023-03-24T02:53:50;4.57;;;4.03;;
18125;SDS011;53956;52.442;13.284;2023-03-24T02:56:29;4.77;;;3.73;;
18125;SDS011;53956;52.442;13.284;2023-03-24T02:59:10;4.50;;;3.60;;
18125;SDS011;53956;52.442;13.284;2023-03-24T03:01:46;4.17;;;3.30;;
18125;SDS011;53956;52.442;13.284;2023-03-24T03:04:42;4.10;;;3.63;;
18125;SDS011;53956;52.442;13.284;2023-03-24T03:07:16;4.87;;;3.90;;
18125;SDS011;53956;52.442;13.284;2023-03-24T03:09:47;5.53;;;3.73;;
18125;SDS011;53956;52.442;13.284;2023-03-24T03:12:22;4.20;;;3.80;;
18125;SDS011;53956;52.442;13.284;2023-03-24T03:14:53;5.93;;;3.80;;
18125;SDS011;53956;52.442;13.284;2023-03-24T03:17:23;4.33;;;3.80;;
18125;SDS011;53956;52.442;13.284;2023-03-24T03:19:55;6.47;;;3.77;;
18125;SDS011;53956;52.442;13.284;2023-03-24T03:22:32;5.23;;;4.10;;
18125;SDS011;53956;52.442;13.284;2023-03-24T03:25:04;4.50;;;3.60;;
18125;SDS011;53956;52.442;13.284;2023-03-24T03:27:33;5.37;;;3.60;;
18125;SDS011;53956;52.442;13.284;2023-03-24T03:30:04;5.83;;;3.80;;
18125;SDS011;53956;52.442;13.284;2023-03-24T03:32:34;5.93;;;3.70;;
18125;SDS011;53956;52.442;13.284;2023-03-24T03:35:06;4.97;;;3.80;;
18125;SDS011;53956;52.442;13.284;2023-03-24T03:37:39;6.00;;;4.20;;
18125;SDS011;53956;52.442;13.284;2023-03-24T03:40:12;4.60;;;4.00;;
18125;SDS011;53956;52.442;13.284;2023-03-24T03:42:50;4.17;;;3.77;;
18125;SDS011;53956;52.442;13.284;2023-03-24T03:45:17;4.33;;;3.67;;
18125;SDS011;53956;52.442;13.284;2023-03-24T03:47:44;4.60;;;4.10;;
18125;SDS011;53956;52.442;13.284;2023-03-24T03:50:11;4.37;;;3.97;;
18125;SDS011;53956;52.442;13.284;2023-03-24T03:52:38;6.23;;;4.30;;
18125;SDS011;53956;52.442;13.284;2023-03-24T03:55:08;5.40;;;4.40;;
18125;SDS011;53956;52.442;13.284;2023-03-24T03:57:37;6.47;;;4.77;;
18125;SDS011;53956;52.442;13.284;2023-03-24T04:00:14;7.30;;;4.80;;
18125;SDS011;53956;52.442;13.284;2023-03-24T04:03:02;5.07;;;4.13;;
18125;SDS011;53956;52.442;13.284;2023-03-24T04:05:45;6.57;;;4.97;;
18125;SDS011;53956;52.442;13.284;2023-03-24T04:08:20;8.07;;;4.87;;
18125;SDS011;53956;52.442;13.284;2023-03-24T04:11:01;8.40;;;5.10;;
18125;SDS011;53956;52.442;13.284;2023-03-24T04:14:10;5.57;;;4.60;;
18125;SDS011;53956;52.442;13.284;2023-03-24T04:16:56;6.20;;;4.97;;
18125;SDS011;53956;52.442;13.284;2023-03-24T04:19:41;6.10;;;4.90;;
18125;SDS011;53956;52.442;13.284;2023-03-24T04:22:20;6.63;;;5.20;;
18125;SDS011;53956;52.442;13.284;2023-03-24T04:25:09;6.20;;;5.30;;
18125;SDS011;53956;52.442;13.284;2023-03-24T04:27:42;6.73;;;5.00;;
18125;SDS011;53956;52.442;13.284;2023-03-24T04:30:16;6.30;;;4.97;;
18125;SDS011;53956;52.442;13.284;2023-03-24T04:32:55;6.17;;;5.30;;
18125;SDS011;53956;52.442;13.284;2023-03-24T04:35:27;5.13;;;4.60;;
18125;SDS011;53956;52.442;13.284;2023-03-24T04:38:13;5.70;;;4.80;;
18125;SDS011;53956;52.442;13.284;2023-03-24T04:40:48;7.97;;;5.20;;
18125;SDS011;53956;52.442;13.284;2023-03-24T04:43:20;7.33;;;5.40;;
18125;SDS011;53956;52.442;13.284;2023-03-24T04:45:50;7.50;;;5.60;;
18125;SDS011;53956;52.442;13.284;2023-03-24T04:48:28;9.13;;;5.70;;
18125;SDS011;53956;52.442;13.284;2023-03-24T04:51:14;7.87;;;5.77;;
18125;SDS011;53956;52.442;13.284;2023-03-24T04:54:02;6.63;;;5.23;;
18125;SDS011;53956;52.442;13.284;2023-03-24T04:56:36;7.30;;;5.67;;
18125;SDS011;53956;52.442;13.284;2023-03-24T04:59:10;6.73;;;5.37;;
18125;SDS011;53956;52.442;13.284;2023-03-24T05:01:37;7.93;;;6.23;;
18125;SDS011;53956;52.442;13.284;2023-03-24T05:04:28;10.23;;;6.20;;
18125;SDS011;53956;52.442;13.284;2023-03-24T05:07:02;6.83;;;5.30;;
18125;SDS011;53956;52.442;13.284;2023-03-24T05:09:30;9.30;;;6.07;;
18125;SDS011;53956;52.442;13.284;2023-03-24T05:11:59;7.23;;;5.80;;
18125;SDS011;53956;52.442;13.284;2023-03-24T05:14:26;7.40;;;5.73;;
18125;SDS011;53956;52.442;13.284;2023-03-24T05:16:52;8.30;;;5.80;;
18125;SDS011;53956;52.442;13.284;2023-03-24T05:19:21;7.73;;;5.80;;
18125;SDS011;53956;52.442;13.284;2023-03-24T05:21:50;7.33;;;5.90;;
18125;SDS011;53956;52.442;13.284;2023-03-24T05:24:18;8.67;;;6.10;;
18125;SDS011;53956;52.442;13.284;2023-03-24T05:26:46;8.73;;;5.77;;
18125;SDS011;53956;52.442;13.284;2023-03-24T05:29:16;8.23;;;6.10;;
18125;SDS011;53956;52.442;13.284;2023-03-24T05:31:43;9.60;;;6.10;;
18125;SDS011;53956;52.442;13.284;2023-03-24T05:34:15;6.20;;;5.43;;
18125;SDS011;53956;52.442;13.284;2023-03-24T05:36:52;10.47;;;6.07;;
18125;SDS011;53956;52.442;13.284;2023-03-24T05:39:20;6.50;;;5.80;;
18125;SDS011;53956;52.442;13.284;2023-03-24T05:41:54;7.00;;;5.67;;
18125;SDS011;53956;52.442;13.284;2023-03-24T05:44:21;7.43;;;5.63;;
18125;SDS011;53956;52.442;13.284;2023-03-24T05:47:02;6.60;;;5.70;;
18125;SDS011;53956;52.442;13.284;2023-03-24T05:49:29;7.60;;;5.97;;
18125;SDS011;53956;52.442;13.284;2023-03-24T05:51:58;7.90;;;5.63;;
18125;SDS011;53956;52.442;13.284;2023-03-24T05:54:25;8.17;;;6.03;;
18125;SDS011;53956;52.442;13.284;2023-03-24T05:57:01;7.57;;;5.77;;
18125;SDS011;53956;52.442;13.284;2023-03-24T05:59:32;7.77;;;5.57;;
18125;SDS011;53956;52.442;13.284;2023-03-24T06:02:05;6.67;;;5.47;;
18125;SDS011;53956;52.442;13.284;2023-03-24T06:04:58;6.20;;;5.30;;
18125;SDS011;53956;52.442;13.284;2023-03-24T06:07:26;9.10;;;5.50;;
18125;SDS011;53956;52.442;13.284;2023-03-24T06:09:55;8.80;;;6.00;;
18125;SDS011;53956;52.442;13.284;2023-03-24T06:12:29;8.40;;;5.47;;
18125;SDS011;53956;52.442;13.284;2023-03-24T06:14:59;7.30;;;5.50;;
18125;SDS011;53956;52.442;13.284;2023-03-24T06:17:28;6.93;;;5.30;;
18125;SDS011;53956;52.442;13.284;2023-03-24T06:19:58;6.90;;;5.60;;
18125;SDS011;53956;52.442;13.284;2023-03-24T06:22:42;7.43;;;5.40;;
18125;SDS011;53956;52.442;13.284;2023-03-24T06:25:14;6.50;;;5.10;;
18125;SDS011;53956;52.442;13.284;2023-03-24T06:27:53;10.13;;;5.97;;
18125;SDS011;53956;52.442;13.284;2023-03-24T06:30:23;7.03;;;5.13;;
18125;SDS011;53956;52.442;13.284;2023-03-24T06:32:49;7.67;;;5.20;;
18125;SDS011;53956;52.442;13.284;2023-03-24T06:35:18;7.10;;;5.30;;
18125;SDS011;53956;52.442;13.284;2023-03-24T06:38:06;6.63;;;5.30;;
18125;SDS011;53956;52.442;13.284;2023-03-24T06:40:33;6.93;;;5.33;;
18125;SDS011;53956;52.442;13.284;2023-03-24T06:43:02;7.87;;;5.50;;
18125;SDS011;53956;52.442;13.284;2023-03-24T06:45:30;6.80;;;5.27;;
18125;SDS011;53956;52.442;13.284;2023-03-24T06:47:58;6.40;;;5.27;;
18125;SDS011;53956;52.442;13.284;2023-03-24T06:50:25;8.20;;;5.30;;
18125;SDS011;53956;52.442;13.284;2023-03-24T06:52:57;7.17;;;5.30;;
18125;SDS011;53956;52.442;13.284;2023-03-24T06:55:27;7.40;;;5.20;;
18125;SDS011;53956;52.442;13.284;2023-03-24T06:57:54;6.20;;;5.07;;
18125;SDS011;53956;52.442;13.284;2023-03-24T07:00:41;7.67;;;5.23;;
18125;SDS011;53956;52.442;13.284;2023-03-24T07:03:22;7.33;;;5.53;;
18125;SDS011;53956;52.442;13.284;2023-03-24T07:06:14;9.90;;;5.90;;
18125;SDS011;53956;52.442;13.284;2023-03-24T07:08:44;5.60;;;5.00;;
18125;SDS011;53956;52.442;13.284;2023-03-24T07:11:12;6.60;;;5.47;;
18125;SDS011;53956;52.442;13.284;2023-03-24T07:13:47;7.17;;;5.07;;
18125;SDS011;53956;52.442;13.284;2023-03-24T07:16:14;7.37;;;5.50;;
18125;SDS011;53956;52.442;13.284;2023-03-24T07:18:42;7.57;;;5.13;;
18125;SDS011;53956;52.442;13.284;2023-03-24T07:21:09;5.37;;;4.77;;
18125;SDS011;53956;52.442;13.284;2023-03-24T07:23:36;7.20;;;5.40;;
18125;SDS011;53956;52.442;13.284;2023-03-24T07:26:13;6.07;;;5.10;;
18125;SDS011;53956;52.442;13.284;2023-03-24T07:28:53;6.17;;;5.27;;
18125;SDS011;53956;52.442;13.284;2023-03-24T07:31:39;7.83;;;5.57;;
18125;SDS011;53956;52.442;13.284;2023-03-24T07:34:08;6.17;;;4.83;;
18125;SDS011;53956;52.442;13.284;2023-03-24T07:36:37;7.20;;;5.17;;
18125;SDS011;53956;52.442;13.284;2023-03-24T07:39:09;6.07;;;5.00;;
18125;SDS011;53956;52.442;13.284;2023-03-24T07:41:38;5.93;;;5.10;;
18125;SDS011;53956;52.442;13.284;2023-03-24T07:44:13;7.17;;;5.30;;
18125;SDS011;53956;52.442;13.284;2023-03-24T07:46:47;7.27;;;5.23;;
18125;SDS011;53956;52.442;13.284;2023-03-24T07:49:14;6.83;;;5.30;;
18125;SDS011;53956;52.442;13.284;2023-03-24T07:51:41;10.47;;;5.93;;
18125;SDS011;53956;52.442;13.284;2023-03-24T07:54:21;7.23;;;5.87;;
18125;SDS011;53956;52.442;13.284;2023-03-24T07:56:49;7.47;;;5.63;;
18125;SDS011;53956;52.442;13.284;2023-03-24T07:59:16;7.43;;;5.40;;
18125;SDS011;53956;52.442;13.284;2023-03-24T08:01:49;7.23;;;5.57;;
18125;SDS011;53956;52.442;13.284;2023-03-24T08:04:21;6.97;;;5.60;;
18125;SDS011;53956;52.442;13.284;2023-03-24T08:07:01;8.17;;;5.70;;
18125;SDS011;53956;52.442;13.284;2023-03-24T08:09:29;7.90;;;5.63;;
18125;SDS011;53956;52.442;13.284;2023-03-24T08:11:57;7.40;;;5.90;;
18125;SDS011;53956;52.442;13.284;2023-03-24T08:14:23;6.70;;;5.83;;
18125;SDS011;53956;52.442;13.284;2023-03-24T08:16:50;8.87;;;5.90;;
18125;SDS011;53956;52.442;13.284;2023-03-24T08:19:17;6.87;;;5.80;;
18125;SDS011;53956;52.442;13.284;2023-03-24T08:21:43;7.07;;;5.77;;
18125;SDS011;53956;52.442;13.284;2023-03-24T08:24:10;7.20;;;5.63;;
18125;SDS011;53956;52.442;13.284;2023-03-24T08:26:37;10.23;;;5.83;;
18125;SDS011;53956;52.442;13.284;2023-03-24T08:29:05;7.57;;;5.77;;
18125;SDS011;53956;52.442;13.284;2023-03-24T08:31:32;7.67;;;5.73;;
18125;SDS011;53956;52.442;13.284;2023-03-24T08:33:59;6.30;;;5.63;;
18125;SDS011;53956;52.442;13.284;2023-03-24T08:36:26;8.87;;;5.80;;
18125;SDS011;53956;52.442;13.284;2023-03-24T08:38:53;6.93;;;6.13;;
18125;SDS011;53956;52.442;13.284;2023-03-24T08:41:21;9.87;;;5.60;;
18125;SDS011;53956;52.442;13.284;2023-03-24T08:43:58;8.87;;;5.70;;
18125;SDS011;53956;52.442;13.284;2023-03-24T08:46:28;7.33;;;6.13;;
18125;SDS011;53956;52.442;13.284;2023-03-24T08:48:56;8.63;;;6.03;;
18125;SDS011;53956;52.442;13.284;2023-03-24T08:51:23;7.47;;;5.40;;
18125;SDS011;53956;52.442;13.284;2023-03-24T08:53:50;8.17;;;5.73;;
18125;SDS011;53956;52.442;13.284;2023-03-24T08:56:18;9.20;;;6.00;;
18125;SDS011;53956;52.442;13.284;2023-03-24T08:58:45;7.10;;;5.73;;
18125;SDS011;53956;52.442;13.284;2023-03-24T09:01:15;7.90;;;5.67;;
18125;SDS011;53956;52.442;13.284;2023-03-24T09:03:44;7.43;;;5.37;;
18125;SDS011;53956;52.442;13.284;2023-03-24T09:06:11;6.80;;;5.70;;
18125;SDS011;53956;52.442;13.284;2023-03-24T09:08:37;9.90;;;5.93;;
18125;SDS011;53956;52.442;13.284;2023-03-24T09:11:05;8.20;;;5.73;;
18125;SDS011;53956;52.442;13.284;2023-03-24T09:13:32;7.57;;;5.37;;
18125;SDS011;53956;52.442;13.284;2023-03-24T09:16:00;6.13;;;5.47;;
18125;SDS011;53956;52.442;13.284;2023-03-24T09:18:28;7.07;;;5.53;;
18125;SDS011;53956;52.442;13.284;2023-03-24T09:20:56;8.53;;;5.50;;
18125;SDS011;53956;52.442;13.284;2023-03-24T09:23:22;8.23;;;5.60;;
18125;SDS011;53956;52.442;13.284;2023-03-24T09:25:49;7.67;;;5.83;;
18125;SDS011;53956;52.442;13.284;2023-03-24T09:28:17;6.77;;;5.70;;
18125;SDS011;53956;52.442;13.284;2023-03-24T09:30:45;9.37;;;6.10;;
18125;SDS011;53956;52.442;13.284;2023-03-24T09:33:11;7.77;;;5.57;;
18125;SDS011;53956;52.442;13.284;2023-03-24T09:35:39;8.07;;;5.53;;
18125;SDS011;53956;52.442;13.284;2023-03-24T09:38:08;6.73;;;5.30;;
18125;SDS011;53956;52.442;13.284;2023-03-24T09:40:37;6.70;;;5.27;;
18125;SDS011;53956;52.442;13.284;2023-03-24T09:43:05;8.97;;;5.30;;
18125;SDS011;53956;52.442;13.284;2023-03-24T09:45:35;7.63;;;5.30;;
18125;SDS011;53956;52.442;13.284;2023-03-24T09:48:15;6.80;;;5.00;;
18125;SDS011;53956;52.442;13.284;2023-03-24T09:50:47;7.43;;;4.90;;
18125;SDS011;53956;52.442;13.284;2023-03-24T09:53:22;6.30;;;4.90;;
18125;SDS011;53956;52.442;13.284;2023-03-24T09:55:53;5.90;;;4.72;;
18125;SDS011;53956;52.442;13.284;2023-03-24T09:58:20;6.40;;;4.95;;
18125;SDS011;53956;52.442;13.284;2023-03-24T10:00:49;4.90;;;4.40;;
18125;SDS011;53956;52.442;13.284;2023-03-24T10:03:17;6.93;;;4.40;;
18125;SDS011;53956;52.442;13.284;2023-03-24T10:05:47;7.67;;;4.83;;
18125;SDS011;53956;52.442;13.284;2023-03-24T10:08:20;5.53;;;4.07;;
18125;SDS011;53956;52.442;13.284;2023-03-24T10:10:56;6.88;;;4.35;;
18125;SDS011;53956;52.442;13.284;2023-03-24T10:13:28;5.93;;;4.30;;
18125;SDS011;53956;52.442;13.284;2023-03-24T10:16:06;6.70;;;4.40;;
18125;SDS011;53956;52.442;13.284;2023-03-24T10:18:41;7.10;;;4.80;;
18125;SDS011;53956;52.442;13.284;2023-03-24T10:21:14;6.97;;;4.70;;
18125;SDS011;53956;52.442;13.284;2023-03-24T10:23:47;6.30;;;4.70;;
18125;SDS011;53956;52.442;13.284;2023-03-24T10:26:24;6.57;;;4.70;;
18125;SDS011;53956;52.442;13.284;2023-03-24T10:29:02;6.53;;;4.30;;
18125;SDS011;53956;52.442;13.284;2023-03-24T10:31:39;6.63;;;4.72;;
18125;SDS011;53956;52.442;13.284;2023-03-24T10:34:08;4.88;;;4.28;;
18125;SDS011;53956;52.442;13.284;2023-03-24T10:36:36;6.10;;;4.60;;
18125;SDS011;53956;52.442;13.284;2023-03-24T10:39:08;6.25;;;4.22;;
18125;SDS011;53956;52.442;13.284;2023-03-24T10:41:39;5.97;;;3.85;;
18125;SDS011;53956;52.442;13.284;2023-03-24T10:44:08;5.13;;;3.83;;
18125;SDS011;53956;52.442;13.284;2023-03-24T10:46:37;4.45;;;3.88;;
18125;SDS011;53956;52.442;13.284;2023-03-24T10:49:13;5.50;;;3.60;;
18125;SDS011;53956;52.442;13.284;2023-03-24T10:51:43;4.55;;;4.00;;
18125;SDS011;53956;52.442;13.284;2023-03-24T10:54:14;5.43;;;3.80;;
18125;SDS011;53956;52.442;13.284;2023-03-24T10:56:42;4.45;;;3.40;;
18125;SDS011;53956;52.442;13.284;2023-03-24T10:59:18;4.63;;;3.75;;
18125;SDS011;53956;52.442;13.284;2023-03-24T11:01:49;4.78;;;3.58;;
18125;SDS011;53956;52.442;13.284;2023-03-24T11:04:20;5.25;;;3.80;;
18125;SDS011;53956;52.442;13.284;2023-03-24T11:06:59;4.57;;;3.50;;
18125;SDS011;53956;52.442;13.284;2023-03-24T11:09:30;5.70;;;3.45;;
18125;SDS011;53956;52.442;13.284;2023-03-24T11:12:04;4.30;;;3.50;;
18125;SDS011;53956;52.442;13.284;2023-03-24T11:14:44;4.43;;;3.55;;
18125;SDS011;53956;52.442;13.284;2023-03-24T11:17:12;3.90;;;3.50;;
18125;SDS011;53956;52.442;13.284;2023-03-24T11:19:48;4.18;;;3.38;;
18125;SDS011;53956;52.442;13.284;2023-03-24T11:22:16;4.43;;;3.42;;
18125;SDS011;53956;52.442;13.284;2023-03-24T11:24:45;3.53;;;3.17;;
18125;SDS011;53956;52.442;13.284;2023-03-24T11:27:14;3.78;;;3.35;;
18125;SDS011;53956;52.442;13.284;2023-03-24T11:29:42;4.35;;;3.40;;
18125;SDS011;53956;52.442;13.284;2023-03-24T11:32:14;4.82;;;3.50;;
18125;SDS011;53956;52.442;13.284;2023-03-24T11:34:46;6.53;;;3.72;;
18125;SDS011;53956;52.442;13.284;2023-03-24T11:37:20;3.45;;;3.10;;
18125;SDS011;53956;52.442;13.284;2023-03-24T11:40:04;3.40;;;3.10;;
18125;SDS011;53956;52.442;13.284;2023-03-24T11:42:42;3.92;;;3.53;;
18125;SDS011;53956;52.442;13.284;2023-03-24T11:45:18;6.28;;;3.35;;
18125;SDS011;53956;52.442;13.284;2023-03-24T11:47:52;4.45;;;3.13;;
18125;SDS011;53956;52.442;13.284;2023-03-24T11:50:23;3.95;;;3.25;;
18125;SDS011;53956;52.442;13.284;2023-03-24T11:52:55;5.72;;;3.10;;
18125;SDS011;53956;52.442;13.284;2023-03-24T11:55:31;4.70;;;3.10;;
18125;SDS011;53956;52.442;13.284;2023-03-24T11:58:02;3.53;;;2.90;;
18125;SDS011;53956;52.442;13.284;2023-03-24T12:00:39;4.15;;;2.72;;
18125;SDS011;53956;52.442;13.284;2023-03-24T12:03:13;5.00;;;2.90;;
18125;SDS011;53956;52.442;13.284;2023-03-24T12:06:04;5.97;;;3.10;;
18125;SDS011;53956;52.442;13.284;2023-03-24T12:08:43;3.30;;;2.75;;
18125;SDS011;53956;52.442;13.284;2023-03-24T12:11:21;4.05;;;2.92;;
18125;SDS011;53956;52.442;13.284;2023-03-24T12:13:53;4.93;;;2.92;;
18125;SDS011;53956;52.442;13.284;2023-03-24T12:16:27;3.30;;;2.90;;
18125;SDS011;53956;52.442;13.284;2023-03-24T12:19:18;4.18;;;3.33;;
18125;SDS011;53956;52.442;13.284;2023-03-24T12:22:01;3.47;;;3.13;;
18125;SDS011;53956;52.442;13.284;2023-03-24T12:24:45;4.70;;;3.10;;
18125;SDS011;53956;52.442;13.284;2023-03-24T12:27:23;4.90;;;3.17;;
18125;SDS011;53956;52.442;13.284;2023-03-24T12:30:01;3.55;;;3.25;;
18125;SDS011;53956;52.442;13.284;2023-03-24T12:32:39;3.63;;;3.10;;
18125;SDS011;53956;52.442;13.284;2023-03-24T12:35:33;3.58;;;3.10;;
18125;SDS011;53956;52.442;13.284;2023-03-24T12:38:24;3.47;;;3.00;;
18125;SDS011;53956;52.442;13.284;2023-03-24T12:41:22;7.45;;;3.33;;
18125;SDS011;53956;52.442;13.284;2023-03-24T12:44:09;4.90;;;3.75;;
18125;SDS011;53956;52.442;13.284;2023-03-24T12:46:54;3.50;;;3.20;;
18125;SDS011;53956;52.442;13.284;2023-03-24T12:49:44;4.63;;;3.58;;
18125;SDS011;53956;52.442;13.284;2023-03-24T12:52:24;3.90;;;3.50;;
18125;SDS011;53956;52.442;13.284;2023-03-24T12:55:00;3.60;;;3.08;;
18125;SDS011;53956;52.442;13.284;2023-03-24T12:57:31;5.35;;;3.30;;
18125;SDS011;53956;52.442;13.284;2023-03-24T13:00:04;3.58;;;3.25;;
18125;SDS011;53956;52.442;13.284;2023-03-24T13:02:37;5.68;;;3.50;;
18125;SDS011;53956;52.442;13.284;2023-03-24T13:05:15;5.75;;;3.33;;
18125;SDS011;53956;52.442;13.284;2023-03-24T13:07:46;4.03;;;3.03;;
18125;SDS011;53956;52.442;13.284;2023-03-24T13:10:19;3.80;;;3.40;;
18125;SDS011;53956;52.442;13.284;2023-03-24T13:12:50;3.65;;;3.00;;
18125;SDS011;53956;52.442;13.284;2023-03-24T13:15:22;4.10;;;3.40;;
18125;SDS011;53956;52.442;13.284;2023-03-24T13:18:02;3.60;;;3.20;;
18125;SDS011;53956;52.442;13.284;2023-03-24T13:20:36;3.80;;;3.40;;
18125;SDS011;53956;52.442;13.284;2023-03-24T13:23:11;4.05;;;3.28;;
18125;SDS011;53956;52.442;13.284;2023-03-24T13:25:51;4.05;;;3.40;;
18125;SDS011;53956;52.442;13.284;2023-03-24T13:28:24;4.18;;;3.00;;
18125;SDS011;53956;52.442;13.284;2023-03-24T13:30:56;4.18;;;3.20;;
18125;SDS011;53956;52.442;13.284;2023-03-24T13:33:26;3.38;;;3.05;;
18125;SDS011;53956;52.442;13.284;2023-03-24T13:35:59;11.68;;;4.30;;
18125;SDS011;53956;52.442;13.284;2023-03-24T13:38:41;3.40;;;3.10;;
18125;SDS011;53956;52.442;13.284;2023-03-24T13:41:12;6.43;;;3.30;;
18125;SDS011;53956;52.442;13.284;2023-03-24T13:43:46;4.72;;;3.13;;
18125;SDS011;53956;52.442;13.284;2023-03-24T13:46:15;8.60;;;3.70;;
18125;SDS011;53956;52.442;13.284;2023-03-24T13:48:42;3.10;;;2.78;;
18125;SDS011;53956;52.442;13.284;2023-03-24T13:51:14;4.63;;;3.00;;
18125;SDS011;53956;52.442;13.284;2023-03-24T13:53:44;3.33;;;2.75;;
18125;SDS011;53956;52.442;13.284;2023-03-24T13:56:21;3.50;;;2.42;;
18125;SDS011;53956;52.442;13.284;2023-03-24T13:59:05;5.85;;;2.50;;
18125;SDS011;53956;52.442;13.284;2023-03-24T14:05:07;6.15;;;2.30;;
18125;SDS011;53956;52.442;13.284;2023-03-24T14:07:42;3.63;;;2.13;;
18125;SDS011;53956;52.442;13.284;2023-03-24T14:10:36;3.88;;;2.30;;
18125;SDS011;53956;52.442;13.284;2023-03-24T14:13:06;3.00;;;2.20;;
18125;SDS011;53956;52.442;13.284;2023-03-24T14:15:45;2.72;;;2.10;;
18125;SDS011;53956;52.442;13.284;2023-03-24T14:18:17;5.28;;;2.20;;
18125;SDS011;53956;52.442;13.284;2023-03-24T14:21:07;2.60;;;1.90;;
18125;SDS011;53956;52.442;13.284;2023-03-24T14:23:35;4.63;;;2.00;;
18125;SDS011;53956;52.442;13.284;2023-03-24T14:26:05;4.43;;;2.72;;
18125;SDS011;53956;52.442;13.284;2023-03-24T14:28:37;3.80;;;2.30;;
18125;SDS011;53956;52.442;13.284;2023-03-24T14:31:09;4.40;;;2.50;;
18125;SDS011;53956;52.442;13.284;2023-03-24T14:33:56;3.13;;;2.20;;
18125;SDS011;53956;52.442;13.284;2023-03-24T14:36:29;4.72;;;2.45;;
18125;SDS011;53956;52.442;13.284;2023-03-24T14:39:06;4.32;;;2.22;;
18125;SDS011;53956;52.442;13.284;2023-03-24T14:41:37;5.18;;;2.33;;
18125;SDS011;53956;52.442;13.284;2023-03-24T14:44:05;3.95;;;2.10;;
18125;SDS011;53956;52.442;13.284;2023-03-24T14:46:39;3.45;;;2.10;;
18125;SDS011;53956;52.442;13.284;2023-03-24T14:49:13;3.38;;;2.08;;
18125;SDS011;53956;52.442;13.284;2023-03-24T14:51:46;3.72;;;2.40;;
18125;SDS011;53956;52.442;13.284;2023-03-24T14:54:21;3.88;;;2.00;;
18125;SDS011;53956;52.442;13.284;2023-03-24T14:56:55;5.40;;;2.10;;
18125;SDS011;53956;52.442;13.284;2023-03-24T14:59:26;3.45;;;2.22;;
18125;SDS011;53956;52.442;13.284;2023-03-24T15:02:02;4.00;;;1.88;;
18125;SDS011;53956;52.442;13.284;2023-03-24T15:04:37;2.92;;;1.75;;
18125;SDS011;53956;52.442;13.284;2023-03-24T15:07:05;3.40;;;1.85;;
18125;SDS011;53956;52.442;13.284;2023-03-24T15:09:37;4.72;;;1.98;;
18125;SDS011;53956;52.442;13.284;2023-03-24T15:12:13;4.38;;;1.88;;
18125;SDS011;53956;52.442;13.284;2023-03-24T15:14:40;4.40;;;1.95;;
18125;SDS011;53956;52.442;13.284;2023-03-24T15:17:14;5.28;;;2.00;;